Time;durP1;ratioP1;P1;durP2;ratioP2;P2;SDS_P1;SDS_P2;PMS_P1;PMS_P2;Temp;Humidity;BMP_temperature;BMP_pressure;BME280_temperature;BME280_humidity;BME280_pressure;Samples;Min_cycle;Max_cycle;Signal;HPM_P1;HPM_P2
2022/07/10 00:01:51;;;;;;;3.08;2.05;;;23.80;59.50;;;;;;5014912;28;20419;-72
2022/07/10 00:04:18;;;;;;;2.13;1.80;;;23.80;59.50;;;;;;5014941;28;20438;-70
2022/07/10 00:06:46;;;;;;;2.17;1.77;;;23.80;59.50;;;;;;5014879;28;20471;-73
2022/07/10 00:09:13;;;;;;;2.30;1.80;;;23.80;60.00;;;;;;5014610;28;20404;-72
2022/07/10 00:11:39;;;;;;;2.22;1.90;;;23.70;59.40;;;;;;5013535;28;20744;-73
2022/07/10 00:14:05;;;;;;;2.50;1.80;;;23.70;59.40;;;;;;5015602;28;20389;-72
2022/07/10 00:16:30;;;;;;;2.67;2.03;;;23.80;59.40;;;;;;5020935;28;20873;-73
2022/07/10 00:18:56;;;;;;;2.40;2.10;;;23.70;59.40;;;;;;5033091;28;20393;-73
2022/07/10 00:21:24;;;;;;;2.10;1.90;;;23.70;59.40;;;;;;5033738;28;20395;-68
2022/07/10 00:23:50;;;;;;;4.00;2.28;;;23.70;59.50;;;;;;5066435;28;20449;-68
2022/07/10 00:26:15;;;;;;;2.17;1.97;;;23.70;59.40;;;;;;5033675;28;20461;-71
2022/07/10 00:28:44;;;;;;;2.50;2.10;;;23.80;59.40;;;;;;5031449;28;20502;-73
2022/07/10 00:31:10;;;;;;;2.45;2.20;;;23.70;59.90;;;;;;5022666;28;20404;-73
2022/07/10 00:33:38;;;;;;;2.15;1.80;;;23.70;59.40;;;;;;5014425;28;20480;-68
2022/07/10 00:36:07;;;;;;;2.75;1.83;;;23.70;59.50;;;;;;5014429;28;20397;-67
2022/07/10 00:38:34;;;;;;;2.72;1.90;;;23.70;59.40;;;;;;5046160;28;20397;-67
2022/07/10 00:41:01;;;;;;;2.50;2.20;;;23.70;59.40;;;;;;5013077;28;20396;-72
2022/07/10 00:43:27;;;;;;;2.85;1.92;;;23.70;59.40;;;;;;5012688;28;20424;-67
2022/07/10 00:45:54;;;;;;;3.03;2.10;;;23.70;59.40;;;;;;5048157;28;20750;-69
2022/07/10 00:48:22;;;;;;;2.50;1.83;;;23.70;59.40;;;;;;5022557;28;20882;-68
2022/07/10 00:50:47;;;;;;;2.22;2.00;;;23.70;59.40;;;;;;5022433;28;21050;-68
2022/07/10 00:53:14;;;;;;;2.53;2.00;;;23.70;59.40;;;;;;5023700;28;20474;-72
2022/07/10 00:55:41;;;;;;;2.28;1.90;;;23.70;59.40;;;;;;5004850;28;20475;-72
2022/07/10 00:58:08;;;;;;;2.78;2.00;;;23.70;59.40;;;;;;5021171;28;20793;-72
2022/07/10 01:00:39;;;;;;;2.40;1.80;;;23.70;59.40;;;;;;5022777;28;20386;-68
2022/07/10 01:03:05;;;;;;;2.65;1.90;;;23.70;59.40;;;;;;5024160;28;20422;-67
2022/07/10 01:05:31;;;;;;;2.50;1.88;;;23.70;59.40;;;;;;5023539;28;20381;-69
2022/07/10 01:07:58;;;;;;;2.33;1.80;;;23.60;59.30;;;;;;5021107;28;20405;-67
2022/07/10 01:10:24;;;;;;;2.03;1.60;;;23.70;59.40;;;;;;5026954;28;20922;-72
2022/07/10 01:12:51;;;;;;;3.45;1.98;;;23.60;59.30;;;;;;5023373;28;20405;-67
2022/07/10 01:15:16;;;;;;;2.47;1.95;;;23.70;59.40;;;;;;5021883;28;20462;-72
2022/07/10 01:17:43;;;;;;;3.55;2.30;;;23.60;59.40;;;;;;5045957;28;20460;-70
2022/07/10 01:20:10;;;;;;;2.10;1.90;;;23.70;59.40;;;;;;5032304;28;20480;-73
2022/07/10 01:22:39;;;;;;;2.00;1.70;;;23.60;59.40;;;;;;5033468;28;20411;-68
2022/07/10 01:25:06;;;;;;;2.47;2.00;;;23.60;59.40;;;;;;5032101;28;20428;-67
2022/07/10 01:27:31;;;;;;;2.67;1.85;;;23.60;59.40;;;;;;5032863;28;20391;-72
2022/07/10 01:29:58;;;;;;;2.72;1.70;;;23.60;59.40;;;;;;5027496;28;20414;-73
2022/07/10 01:32:25;;;;;;;2.15;1.92;;;23.60;59.40;;;;;;5023269;28;20393;-72
2022/07/10 01:34:51;;;;;;;2.55;2.00;;;23.60;59.40;;;;;;5022369;28;20397;-67
2022/07/10 01:37:17;;;;;;;1.98;1.75;;;23.60;59.40;;;;;;5022949;28;20903;-72
2022/07/10 01:39:43;;;;;;;2.07;1.80;;;23.60;59.40;;;;;;5022527;28;20408;-72
2022/07/10 01:42:09;;;;;;;2.30;2.05;;;23.60;59.40;;;;;;5019527;28;20432;-72
2022/07/10 01:44:34;;;;;;;2.90;1.95;;;23.60;59.40;;;;;;5022470;28;20822;-72
2022/07/10 01:47:02;;;;;;;2.55;1.98;;;23.60;59.40;;;;;;5022223;28;20384;-68
2022/07/10 01:49:28;;;;;;;2.15;1.80;;;23.60;59.40;;;;;;5022340;28;20976;-67
2022/07/10 01:51:54;;;;;;;2.35;2.00;;;23.60;59.40;;;;;;5019430;28;20472;-68
2022/07/10 01:54:19;;;;;;;2.67;1.90;;;23.60;59.50;;;;;;5021266;28;20501;-72
2022/07/10 01:56:47;;;;;;;2.25;1.92;;;23.60;59.50;;;;;;5022533;28;21035;-71
2022/07/10 01:59:12;;;;;;;2.33;2.13;;;23.60;59.40;;;;;;5022272;28;20392;-70
2022/07/10 02:01:38;;;;;;;2.15;1.85;;;23.60;59.40;;;;;;5021276;28;20389;-72
2022/07/10 02:06:48;;;;;;;2.30;2.10;;;23.60;59.50;;;;;;5022465;28;20756;-67
2022/07/10 02:09:15;;;;;;;2.55;2.15;;;23.60;59.50;;;;;;5020063;28;20902;-67
2022/07/10 02:11:41;;;;;;;2.28;2.05;;;23.60;59.50;;;;;;5021272;28;20388;-71
2022/07/10 02:14:08;;;;;;;2.53;2.03;;;23.60;59.50;;;;;;5031454;28;20916;-68
2022/07/10 02:16:35;;;;;;;2.60;2.20;;;23.60;59.50;;;;;;5031191;28;20399;-67
2022/07/10 02:19:02;;;;;;;2.20;2.00;;;23.60;59.50;;;;;;5031112;28;20464;-72
2022/07/10 02:21:27;;;;;;;2.20;2.00;;;23.50;59.50;;;;;;5031651;28;20383;-72
2022/07/10 02:23:53;;;;;;;2.10;1.90;;;23.60;59.50;;;;;;5032177;28;20478;-68
2022/07/10 02:26:20;;;;;;;2.90;2.10;;;23.50;59.40;;;;;;5032277;28;20474;-72
2022/07/10 02:28:46;;;;;;;2.53;1.80;;;23.60;59.50;;;;;;5031185;28;20508;-70
2022/07/10 02:31:12;;;;;;;2.10;1.90;;;23.50;59.50;;;;;;5021641;28;20392;-69
2022/07/10 02:33:38;;;;;;;2.35;2.15;;;23.50;59.50;;;;;;5012184;28;20412;-68
2022/07/10 02:36:04;;;;;;;2.85;2.10;;;23.50;59.50;;;;;;5012355;28;20483;-67
2022/07/10 02:38:32;;;;;;;2.40;2.20;;;23.50;59.50;;;;;;5010877;28;20396;-72
2022/07/10 02:40:58;;;;;;;2.50;2.20;;;23.50;59.50;;;;;;5012510;28;20782;-71
2022/07/10 02:43:23;;;;;;;2.35;2.15;;;23.50;59.50;;;;;;5011357;28;20912;-70
2022/07/10 02:45:49;;;;;;;2.20;1.98;;;23.50;59.50;;;;;;5010870;28;20403;-73
2022/07/10 02:48:16;;;;;;;2.20;2.00;;;23.50;59.50;;;;;;5012099;28;20400;-73
2022/07/10 02:50:42;;;;;;;2.10;1.90;;;23.50;59.50;;;;;;5010784;28;20400;-72
2022/07/10 02:53:07;;;;;;;2.30;2.10;;;23.50;60.10;;;;;;5010585;28;20755;-72
2022/07/10 02:55:33;;;;;;;2.45;2.10;;;23.50;59.60;;;;;;5011557;28;20443;-67
2022/07/10 02:57:59;;;;;;;2.22;2.03;;;23.50;59.60;;;;;;5010775;28;20404;-73
2022/07/10 03:00:27;;;;;;;2.30;2.10;;;23.50;59.60;;;;;;5011816;28;20387;-72
2022/07/10 03:02:54;;;;;;;2.10;1.90;;;23.50;59.50;;;;;;5011860;28;20512;-70
2022/07/10 03:05:20;;;;;;;2.43;2.00;;;23.50;59.60;;;;;;5010004;28;20400;-72
2022/07/10 03:07:46;;;;;;;2.45;2.17;;;23.50;59.60;;;;;;5010098;28;20427;-68
2022/07/10 03:10:12;;;;;;;2.30;2.10;;;23.50;59.60;;;;;;5009571;28;20393;-67
2022/07/10 03:12:38;;;;;;;2.75;2.15;;;23.50;59.70;;;;;;5010056;28;20475;-69
2022/07/10 03:15:05;;;;;;;2.80;2.20;;;23.50;59.70;;;;;;5010322;28;20952;-68
2022/07/10 03:17:31;;;;;;;2.65;2.08;;;23.50;59.60;;;;;;5009726;28;20543;-73
2022/07/10 03:19:57;;;;;;;2.20;2.00;;;23.50;59.60;;;;;;5011530;28;20525;-73
2022/07/10 03:22:23;;;;;;;2.30;2.10;;;23.50;59.60;;;;;;5010046;28;20910;-67
2022/07/10 03:24:49;;;;;;;2.70;2.30;;;23.50;59.70;;;;;;5010358;28;20407;-73
2022/07/10 03:27:15;;;;;;;2.10;1.90;;;23.50;59.60;;;;;;5011357;28;20400;-67
2022/07/10 03:29:41;;;;;;;2.30;2.10;;;23.50;59.70;;;;;;5010120;28;20895;-71
2022/07/10 03:32:08;;;;;;;2.22;2.03;;;23.50;59.70;;;;;;5028969;28;20471;-68
2022/07/10 03:34:33;;;;;;;2.60;2.40;;;23.50;59.70;;;;;;5031131;28;20433;-71
2022/07/10 03:37:03;;;;;;;2.63;2.10;;;23.50;59.70;;;;;;5030212;28;20395;-71
2022/07/10 03:39:29;;;;;;;2.40;2.10;;;23.50;59.70;;;;;;5029953;28;20399;-72
2022/07/10 03:41:55;;;;;;;2.30;1.80;;;23.50;59.70;;;;;;5031354;28;20406;-72
2022/07/10 03:44:21;;;;;;;2.75;2.10;;;23.50;59.80;;;;;;5031483;28;20395;-70
2022/07/10 03:46:46;;;;;;;2.40;2.00;;;23.50;59.80;;;;;;5030066;28;20441;-73
2022/07/10 03:49:12;;;;;;;2.40;2.20;;;23.40;59.70;;;;;;5029819;28;20498;-73
2022/07/10 03:51:38;;;;;;;2.53;2.20;;;23.50;59.80;;;;;;5030110;28;20776;-72
2022/07/10 03:54:04;;;;;;;2.05;1.85;;;23.40;59.80;;;;;;5031689;28;20406;-68
2022/07/10 03:59:14;;;;;;;2.38;2.17;;;23.40;59.80;;;;;;5031231;28;20833;-71
2022/07/10 04:01:40;;;;;;;2.00;1.80;;;23.40;59.80;;;;;;5029435;28;20460;-73
2022/07/10 04:04:07;;;;;;;2.60;2.40;;;23.40;59.80;;;;;;5031334;28;20435;-72
2022/07/10 04:06:33;;;;;;;2.50;2.03;;;23.40;59.80;;;;;;5029740;28;20872;-72
2022/07/10 04:08:58;;;;;;;2.25;2.05;;;23.40;59.80;;;;;;5031009;28;20445;-70
2022/07/10 04:11:24;;;;;;;2.20;2.00;;;23.40;59.80;;;;;;5030438;28;20474;-67
2022/07/10 04:13:50;;;;;;;2.38;1.98;;;23.40;59.90;;;;;;5030382;28;20406;-72
2022/07/10 04:16:18;;;;;;;2.13;1.92;;;23.40;59.90;;;;;;5029685;28;20760;-72
2022/07/10 04:18:44;;;;;;;2.22;2.03;;;23.40;59.90;;;;;;5033258;28;20387;-68
2022/07/10 04:21:09;;;;;;;2.13;1.92;;;23.40;59.90;;;;;;5033385;28;20401;-73
2022/07/10 04:23:35;;;;;;;2.22;2.03;;;23.40;59.80;;;;;;5034977;28;20441;-73
2022/07/10 04:26:02;;;;;;;2.60;2.40;;;23.40;59.90;;;;;;5034632;28;20483;-67
2022/07/10 04:28:28;;;;;;;2.30;2.10;;;23.40;59.90;;;;;;5034239;28;20416;-72
2022/07/10 04:30:53;;;;;;;2.72;2.00;;;23.40;59.90;;;;;;5026969;28;20397;-68
2022/07/10 04:33:22;;;;;;;2.63;2.10;;;23.40;59.90;;;;;;5014137;28;20479;-70
2022/07/10 04:35:47;;;;;;;2.55;2.05;;;23.40;59.90;;;;;;5014504;28;20898;-71
2022/07/10 04:38:14;;;;;;;2.25;2.05;;;23.40;59.90;;;;;;5014781;28;20480;-71
2022/07/10 04:40:40;;;;;;;2.75;2.05;;;23.40;60.00;;;;;;5014594;28;20841;-68
2022/07/10 04:43:06;;;;;;;2.38;2.17;;;23.40;59.90;;;;;;5014398;28;20420;-67
2022/07/10 04:45:32;;;;;;;2.43;2.10;;;23.40;59.90;;;;;;5013947;28;20389;-67
2022/07/10 04:47:57;;;;;;;2.90;2.47;;;23.40;60.00;;;;;;5013149;28;20409;-71
2022/07/10 04:50:23;;;;;;;2.60;2.40;;;23.40;60.00;;;;;;5013735;28;20420;-72
2022/07/10 04:52:50;;;;;;;2.63;2.40;;;23.40;60.00;;;;;;5014327;28;20868;-72
2022/07/10 04:55:16;;;;;;;2.40;2.20;;;23.40;60.00;;;;;;5014055;28;20421;-73
2022/07/10 04:57:44;;;;;;;2.40;2.20;;;23.40;60.00;;;;;;5013922;28;20798;-71
2022/07/10 05:00:11;;;;;;;3.38;2.40;;;23.40;60.00;;;;;;5012981;28;20823;-67
2022/07/10 05:02:37;;;;;;;2.60;2.30;;;23.40;60.00;;;;;;5014039;28;20459;-69
2022/07/10 05:05:03;;;;;;;2.40;2.20;;;23.40;60.10;;;;;;5013320;28;20413;-72
2022/07/10 05:07:29;;;;;;;2.50;2.30;;;23.40;60.00;;;;;;5015155;28;20380;-73
2022/07/10 05:09:55;;;;;;;2.33;2.13;;;23.40;60.10;;;;;;5012818;28;20416;-70
2022/07/10 05:12:20;;;;;;;3.17;2.30;;;23.40;60.10;;;;;;5014715;28;20377;-72
2022/07/10 05:14:46;;;;;;;2.63;2.17;;;23.40;60.10;;;;;;5013792;28;20392;-68
2022/07/10 05:17:12;;;;;;;2.50;2.30;;;23.40;60.10;;;;;;5014655;28;20381;-73
2022/07/10 05:19:38;;;;;;;2.72;2.30;;;23.40;60.10;;;;;;5045557;28;20447;-72
2022/07/10 05:22:04;;;;;;;2.22;2.03;;;23.40;60.10;;;;;;5013939;28;20423;-69
2022/07/10 05:24:30;;;;;;;2.45;2.25;;;23.40;60.10;;;;;;5014575;28;20879;-72
2022/07/10 05:26:59;;;;;;;3.13;2.47;;;23.40;60.10;;;;;;5012902;28;20414;-73
2022/07/10 05:29:24;;;;;;;2.55;2.35;;;23.30;60.10;;;;;;5012234;28;20505;-72
2022/07/10 05:31:50;;;;;;;2.57;2.33;;;23.30;60.10;;;;;;5028785;28;20473;-72
2022/07/10 05:34:16;;;;;;;2.38;2.17;;;23.30;60.10;;;;;;5034114;28;20395;-68
2022/07/10 05:36:42;;;;;;;2.40;2.20;;;23.30;60.10;;;;;;5033432;28;20383;-73
2022/07/10 05:39:08;;;;;;;2.63;2.30;;;23.40;60.10;;;;;;5033208;28;20395;-70
2022/07/10 05:41:34;;;;;;;3.65;2.42;;;23.40;60.40;;;;;;5034089;28;20391;-71
2022/07/10 05:44:00;;;;;;;3.78;2.40;;;23.30;61.10;;;;;;5000764;28;20413;-68
2022/07/10 05:46:26;;;;;;;6.85;4.32;;;23.40;61.00;;;;;;5024220;28;20761;-70
2022/07/10 05:48:52;;;;;;;4.25;3.85;;;23.40;63.30;;;;;;5014232;28;20405;-69
2022/07/10 05:51:18;;;;;;;3.47;3.13;;;23.40;64.30;;;;;;5012850;28;20464;-68
2022/07/10 05:53:44;;;;;;;4.85;2.80;;;23.40;62.80;;;;;;5013147;28;20481;-71
2022/07/10 05:56:11;;;;;;;3.88;3.00;;;23.40;61.60;;;;;;5013055;28;20393;-70
2022/07/10 05:58:36;;;;;;;3.75;2.83;;;23.40;62.10;;;;;;5012855;28;20930;-70
2022/07/10 06:01:02;;;;;;;6.47;3.80;;;23.40;62.60;;;;;;5012837;28;20485;-71
2022/07/10 06:03:28;;;;;;;5.93;3.42;;;23.40;62.80;;;;;;5012576;28;20459;-70
2022/07/10 06:05:54;;;;;;;6.10;3.30;;;23.40;63.50;;;;;;5012928;28;20386;-68
2022/07/10 06:08:21;;;;;;;5.90;3.50;;;23.40;63.20;;;;;;5011353;28;20421;-69
2022/07/10 06:10:48;;;;;;;4.50;3.60;;;23.40;63.50;;;;;;5011236;28;20400;-72
2022/07/10 06:13:14;;;;;;;5.70;4.25;;;23.40;62.40;;;;;;5012603;28;20404;-69
2022/07/10 06:15:40;;;;;;;6.65;4.00;;;23.40;63.30;;;;;;5030250;28;20384;-72
2022/07/10 06:18:06;;;;;;;5.70;3.90;;;23.40;63.70;;;;;;5030957;28;20399;-70
2022/07/10 06:20:32;;;;;;;5.13;4.15;;;23.40;63.50;;;;;;5032135;28;21007;-70
2022/07/10 06:22:58;;;;;;;5.32;3.80;;;23.40;63.70;;;;;;5032091;28;20500;-71
2022/07/10 06:25:25;;;;;;;5.00;4.20;;;23.40;63.10;;;;;;5030378;28;20491;-71
2022/07/10 06:27:51;;;;;;;4.55;4.00;;;23.40;63.90;;;;;;5031766;28;20469;-67
2022/07/10 06:30:18;;;;;;;6.78;4.30;;;23.40;63.60;;;;;;5029532;28;20474;-70
2022/07/10 06:32:44;;;;;;;9.93;4.20;;;23.40;63.70;;;;;;5012176;28;20401;-70
2022/07/10 06:35:10;;;;;;;7.63;3.70;;;23.40;63.60;;;;;;5012327;28;20439;-70
2022/07/10 06:37:36;;;;;;;11.15;3.72;;;23.40;63.20;;;;;;5011698;28;20435;-70
2022/07/10 06:40:03;;;;;;;5.18;3.70;;;23.40;63.20;;;;;;5012177;28;20878;-67
2022/07/10 06:42:29;;;;;;;4.72;3.83;;;23.40;63.30;;;;;;5012062;28;20474;-71
2022/07/10 06:44:55;;;;;;;4.35;3.72;;;23.40;63.30;;;;;;5012521;28;20903;-70
2022/07/10 06:50:08;;;;;;;6.38;4.10;;;23.40;62.70;;;;;;5031700;28;20410;-70
2022/07/10 06:52:34;;;;;;;6.00;4.45;;;23.40;62.60;;;;;;5031350;28;20788;-68
2022/07/10 06:55:02;;;;;;;4.82;3.95;;;23.40;63.00;;;;;;5031755;28;20383;-70
2022/07/10 06:57:33;;;;;;;5.00;4.03;;;23.30;61.80;;;;;;5031069;28;20426;-72
2022/07/10 07:00:00;;;;;;;4.60;3.97;;;23.30;61.60;;;;;;5031664;28;20405;-72
2022/07/10 07:02:26;;;;;;;5.60;4.05;;;23.30;61.50;;;;;;5031369;28;20876;-70
2022/07/10 07:04:53;;;;;;;5.05;3.97;;;23.30;61.20;;;;;;5031598;28;20442;-73
2022/07/10 07:07:20;;;;;;;5.43;4.00;;;23.30;61.20;;;;;;5031149;28;20462;-67
2022/07/10 07:09:49;;;;;;;7.53;4.57;;;23.20;61.20;;;;;;5030990;28;20437;-68
2022/07/10 07:12:16;;;;;;;9.93;6.13;;;23.30;61.20;;;;;;5031168;28;20493;-68
2022/07/10 07:14:42;;;;;;;8.93;6.30;;;23.20;61.20;;;;;;5031354;28;20470;-72
2022/07/10 07:17:09;;;;;;;11.25;6.10;;;23.20;61.20;;;;;;5031341;28;20391;-73
2022/07/10 07:25:09;;;;;;;8.83;5.70;;;23.20;61.30;;;;;;5031268;28;20476;-74
2022/07/10 07:27:38;;;;;;;7.10;5.65;;;23.20;61.30;;;;;;5029577;28;21015;-73
2022/07/10 07:30:06;;;;;;;8.45;5.68;;;23.20;61.20;;;;;;5028860;28;20893;-68
2022/07/10 07:32:33;;;;;;;9.13;5.60;;;23.20;61.10;;;;;;5010643;28;20828;-67
2022/07/10 07:35:02;;;;;;;8.07;5.40;;;23.20;61.10;;;;;;5011062;28;20807;-72
2022/07/10 07:37:48;;;;;;;7.32;5.28;;;23.20;61.20;;;;;;5009479;28;20401;-73
2022/07/10 07:40:19;;;;;;;8.55;5.25;;;23.20;61.10;;;;;;5011344;28;20890;-71
2022/07/10 07:42:46;;;;;;;9.05;5.80;;;23.20;61.00;;;;;;5011362;28;20424;-72
2022/07/10 07:45:13;;;;;;;6.63;5.25;;;23.20;61.30;;;;;;5011466;28;20385;-72
2022/07/10 07:47:45;;;;;;;8.15;5.70;;;23.20;61.80;;;;;;5010693;28;20495;-72
2022/07/10 07:50:12;;;;;;;7.67;5.57;;;23.20;61.80;;;;;;5009982;28;20474;-68
2022/07/10 07:52:39;;;;;;;8.38;5.78;;;23.20;61.40;;;;;;5010777;28;20815;-72
2022/07/10 07:55:07;;;;;;;10.87;6.40;;;23.20;61.80;;;;;;5015223;28;20397;-67
2022/07/10 07:57:33;;;;;;;8.60;5.47;;;23.30;61.40;;;;;;5014761;28;20407;-73
2022/07/10 07:59:59;;;;;;;9.50;6.30;;;23.20;61.10;;;;;;5015149;28;20397;-73
2022/07/10 08:02:27;;;;;;;8.38;5.85;;;23.20;61.30;;;;;;5014957;28;20405;-68
2022/07/10 08:04:53;;;;;;;8.30;5.93;;;23.20;61.20;;;;;;5013768;28;20451;-68
2022/07/10 08:07:20;;;;;;;6.67;5.40;;;23.20;61.30;;;;;;5014957;28;20417;-67
2022/07/10 08:09:46;;;;;;;6.97;5.63;;;23.30;61.50;;;;;;5014681;28;21229;-72
2022/07/10 08:12:12;;;;;;;7.17;5.40;;;23.30;61.30;;;;;;5014956;28;20388;-72
2022/07/10 08:14:38;;;;;;;7.95;5.53;;;23.30;61.20;;;;;;5014773;28;20384;-73
2022/07/10 08:17:04;;;;;;;7.25;5.25;;;23.20;61.10;;;;;;5015383;28;20397;-68
2022/07/10 08:19:31;;;;;;;7.85;5.20;;;23.30;61.20;;;;;;5033873;28;20384;-68
2022/07/10 08:21:57;;;;;;;7.68;5.20;;;23.30;61.20;;;;;;5032953;28;20789;-72
2022/07/10 08:24:23;;;;;;;6.63;5.03;;;23.30;61.20;;;;;;5034596;28;20407;-68
2022/07/10 08:26:51;;;;;;;6.47;5.13;;;23.30;61.10;;;;;;5034441;28;20399;-69
2022/07/10 08:29:18;;;;;;;7.18;5.35;;;23.30;61.20;;;;;;5034190;28;20468;-68
2022/07/10 08:31:44;;;;;;;6.00;5.10;;;23.30;61.20;;;;;;5019432;28;20400;-72
2022/07/10 08:34:11;;;;;;;6.85;5.20;;;23.30;61.00;;;;;;5014542;28;20409;-70
2022/07/10 08:36:37;;;;;;;8.13;5.32;;;23.30;61.00;;;;;;5013246;28;20397;-73
2022/07/10 08:39:02;;;;;;;8.47;5.23;;;23.30;61.20;;;;;;5014155;28;20457;-70
2022/07/10 08:41:31;;;;;;;7.47;5.00;;;23.30;61.30;;;;;;5013850;28;20431;-69
2022/07/10 08:43:58;;;;;;;6.82;5.05;;;23.30;62.00;;;;;;5014221;28;20409;-73
2022/07/10 08:46:24;;;;;;;8.38;5.35;;;23.30;62.10;;;;;;5045932;28;20444;-72
2022/07/10 08:48:53;;;;;;;6.65;5.07;;;23.30;61.70;;;;;;5012156;28;20444;-70
2022/07/10 08:51:48;;;;;;;6.72;4.97;;;23.30;61.50;;;;;;5014082;28;20720;-69
2022/07/10 08:54:15;;;;;;;8.27;5.25;;;23.30;62.30;;;;;;5004025;28;20405;-73
2022/07/10 08:56:42;;;;;;;7.57;4.88;;;23.30;61.80;;;;;;5014204;28;20397;-67
2022/07/10 08:59:09;;;;;;;6.95;5.13;;;23.30;62.50;;;;;;5014192;28;20427;-73
2022/07/10 09:01:35;;;;;;;7.38;5.20;;;23.50;62.50;;;;;;5013311;28;20978;-67
2022/07/10 09:04:02;;;;;;;8.27;5.28;;;23.50;62.00;;;;;;5012976;28;20926;-73
2022/07/10 09:06:29;;;;;;;7.50;5.35;;;23.60;61.70;;;;;;5013369;28;20393;-68
2022/07/10 09:09:03;;;;;;;6.70;5.00;;;23.70;61.70;;;;;;5045658;28;20945;-72
2022/07/10 09:11:31;;;;;;;6.97;4.93;;;23.70;61.50;;;;;;5045266;28;20392;-67
2022/07/10 09:13:58;;;;;;;6.63;4.80;;;23.70;61.20;;;;;;5013304;28;20401;-72
2022/07/10 09:16:29;;;;;;;6.20;4.65;;;23.80;60.90;;;;;;5013129;28;20389;-69
2022/07/10 09:18:57;;;;;;;6.35;4.63;;;23.80;61.00;;;;;;5013737;28;20440;-69
2022/07/10 09:21:24;;;;;;;6.93;4.72;;;23.80;60.90;;;;;;5014196;28;20586;-67
2022/07/10 09:23:51;;;;;;;6.90;4.60;;;23.80;60.60;;;;;;5011693;28;20590;-66
2022/07/10 09:26:18;;;;;;;5.88;4.45;;;23.80;60.50;;;;;;5013604;28;20397;-67
2022/07/10 09:28:44;;;;;;;5.40;4.40;;;23.80;60.50;;;;;;5011900;28;20440;-68
2022/07/10 09:31:10;;;;;;;5.78;4.63;;;23.80;60.30;;;;;;5022978;28;20403;-71
2022/07/10 09:33:37;;;;;;;6.10;4.20;;;23.80;60.40;;;;;;5031090;28;20757;-73
2022/07/10 09:36:10;;;;;;;5.93;4.40;;;23.80;60.30;;;;;;5031631;28;20399;-72
2022/07/10 09:38:42;;;;;;;7.07;4.72;;;23.90;60.30;;;;;;5034230;28;20481;-73
2022/07/10 09:41:16;;;;;;;5.00;4.40;;;23.90;60.20;;;;;;5032578;28;20398;-72
2022/07/10 09:44:05;;;;;;;5.82;4.60;;;23.90;60.10;;;;;;5032335;28;20968;-72
2022/07/10 09:46:36;;;;;;;5.00;4.22;;;23.90;60.00;;;;;;5015298;28;20893;-72
2022/07/10 09:49:13;;;;;;;4.88;4.20;;;24.00;60.00;;;;;;5032551;28;20862;-71
2022/07/10 09:51:45;;;;;;;5.70;4.40;;;24.00;59.80;;;;;;5032134;28;20415;-69
2022/07/10 09:54:11;;;;;;;5.18;4.20;;;24.00;59.80;;;;;;5032749;28;20391;-72
2022/07/10 09:56:47;;;;;;;5.53;4.05;;;24.00;59.70;;;;;;5032412;28;20429;-72
2022/07/10 09:59:17;;;;;;;4.90;4.07;;;24.00;59.60;;;;;;5032092;28;20391;-68
2022/07/10 10:01:52;;;;;;;5.35;4.40;;;24.00;59.60;;;;;;5022318;28;20398;-73
2022/07/10 10:04:21;;;;;;;5.10;4.40;;;24.00;59.50;;;;;;5022396;28;20397;-66
2022/07/10 10:06:57;;;;;;;4.93;4.25;;;24.00;59.40;;;;;;5021052;28;20896;-70
2022/07/10 10:09:44;;;;;;;5.60;4.07;;;24.10;59.60;;;;;;5021247;28;20391;-67
2022/07/10 10:12:17;;;;;;;5.77;4.17;;;24.10;59.30;;;;;;5022212;28;20436;-71
2022/07/10 10:14:44;;;;;;;4.40;4.00;;;24.20;59.40;;;;;;5021708;28;20905;-73
2022/07/10 10:17:11;;;;;;;5.97;4.07;;;24.20;59.20;;;;;;5019345;28;20401;-73
2022/07/10 10:22:25;;;;;;;5.63;3.83;;;24.20;58.80;;;;;;5023081;28;20428;-71
2022/07/10 10:24:53;;;;;;;6.88;4.03;;;24.20;58.60;;;;;;5022220;28;20403;-71
2022/07/10 10:27:20;;;;;;;5.30;3.78;;;24.20;57.90;;;;;;5020883;28;20909;-67
2022/07/10 10:29:48;;;;;;;4.93;3.33;;;24.30;57.70;;;;;;5020276;28;20423;-73
2022/07/10 10:32:14;;;;;;;5.57;3.50;;;24.30;57.30;;;;;;5020336;28;20399;-71
2022/07/10 10:34:44;;;;;;;5.53;3.70;;;24.30;57.00;;;;;;5020453;28;20392;-72
2022/07/10 10:37:36;;;;;;;4.68;3.30;;;24.30;56.40;;;;;;5024991;28;20410;-72
2022/07/10 10:40:05;;;;;;;6.93;3.40;;;24.30;56.40;;;;;;5026228;28;20467;-70
2022/07/10 10:42:40;;;;;;;3.83;3.20;;;24.30;55.80;;;;;;5023484;28;20472;-72
2022/07/10 10:45:32;;;;;;;4.15;3.25;;;24.30;55.40;;;;;;5025596;28;20383;-73
2022/07/10 10:47:59;;;;;;;3.80;3.30;;;24.30;55.20;;;;;;5023813;28;20397;-72
2022/07/10 10:50:41;;;;;;;5.43;3.90;;;24.30;55.00;;;;;;5015107;28;20777;-69
2022/07/10 10:53:15;;;;;;;5.65;3.25;;;24.30;55.50;;;;;;5021935;28;20759;-70
2022/07/10 10:56:07;;;;;;;5.95;3.22;;;24.40;55.40;;;;;;5017157;28;20419;-71
2022/07/10 10:58:44;;;;;;;4.38;3.20;;;24.40;55.10;;;;;;5023035;28;20753;-72
2022/07/10 11:01:20;;;;;;;6.40;3.50;;;24.40;55.30;;;;;;5021656;28;20391;-72
2022/07/10 11:04:04;;;;;;;6.40;3.40;;;24.40;55.10;;;;;;5022263;28;20415;-71
2022/07/10 11:06:52;;;;;;;6.50;3.40;;;24.50;55.30;;;;;;5020994;28;20801;-71
2022/07/10 11:09:34;;;;;;;7.68;3.47;;;24.50;55.00;;;;;;5017338;28;20399;-72
2022/07/10 11:12:01;;;;;;;7.68;3.20;;;24.50;54.70;;;;;;5021748;28;20418;-70
2022/07/10 11:14:28;;;;;;;8.80;3.15;;;24.50;54.50;;;;;;5021702;28;20418;-72
2022/07/10 11:16:55;;;;;;;5.07;3.03;;;24.50;54.60;;;;;;5002844;28;20389;-72
2022/07/10 11:19:27;;;;;;;7.07;3.30;;;24.40;55.00;;;;;;5018596;28;20403;-72
2022/07/10 11:22:11;;;;;;;5.27;3.03;;;24.40;55.00;;;;;;5016224;28;20397;-72
2022/07/10 11:24:51;;;;;;;8.00;3.00;;;24.40;54.20;;;;;;5011371;28;20404;-72
2022/07/10 11:27:51;;;;;;;3.87;2.90;;;24.50;54.00;;;;;;5010470;28;20404;-71
2022/07/10 11:30:18;;;;;;;6.40;2.95;;;24.50;54.10;;;;;;5012951;28;20479;-71
2022/07/10 11:32:44;;;;;;;4.30;3.10;;;24.60;54.90;;;;;;5013877;28;20414;-71
2022/07/10 11:35:13;;;;;;;4.78;3.30;;;24.70;54.40;;;;;;5031304;28;20486;-73
2022/07/10 11:37:54;;;;;;;6.90;3.20;;;24.60;56.10;;;;;;5031682;28;20406;-71
2022/07/10 11:40:20;;;;;;;6.07;3.03;;;24.70;56.60;;;;;;5026775;28;20451;-68
2022/07/10 11:42:53;;;;;;;4.38;2.80;;;24.80;55.80;;;;;;5019036;28;20944;-73
2022/07/10 11:45:29;;;;;;;5.75;2.80;;;24.80;53.90;;;;;;5026279;28;20399;-73
2022/07/10 11:47:55;;;;;;;5.00;2.83;;;24.70;54.00;;;;;;5018369;28;20443;-71
2022/07/10 11:50:22;;;;;;;6.30;3.15;;;24.70;53.80;;;;;;5019931;28;20402;-70
2022/07/10 11:52:50;;;;;;;4.72;3.20;;;24.70;54.10;;;;;;5021815;28;20411;-72
2022/07/10 11:55:18;;;;;;;7.63;3.20;;;24.70;54.10;;;;;;5021533;28;20391;-70
2022/07/10 11:57:48;;;;;;;10.63;3.60;;;24.70;53.60;;;;;;5020392;28;20403;-68
2022/07/10 12:00:30;;;;;;;8.55;3.22;;;24.70;53.10;;;;;;5018942;28;20391;-70
2022/07/10 12:03:16;;;;;;;6.03;3.10;;;24.70;52.80;;;;;;5026059;28;20438;-70
2022/07/10 12:05:41;;;;;;;6.90;3.38;;;24.70;52.70;;;;;;5020219;28;20388;-72
2022/07/10 12:08:07;;;;;;;5.33;3.20;;;24.70;52.70;;;;;;5017844;28;20417;-70
2022/07/10 12:10:34;;;;;;;6.57;3.20;;;24.80;52.90;;;;;;5016996;28;20896;-70
2022/07/10 12:13:20;;;;;;;6.60;2.80;;;24.80;52.80;;;;;;5017897;28;20484;-71
2022/07/10 12:15:47;;;;;;;7.00;2.87;;;24.90;52.60;;;;;;5019996;28;20395;-68
2022/07/10 12:18:18;;;;;;;4.75;2.85;;;24.90;52.70;;;;;;5019573;28;20909;-67
2022/07/10 12:20:47;;;;;;;4.35;2.83;;;24.90;52.60;;;;;;5018403;28;20531;-67
2022/07/10 12:23:16;;;;;;;3.67;2.67;;;24.90;52.10;;;;;;5017788;28;20415;-69
2022/07/10 12:25:44;;;;;;;3.78;2.50;;;24.90;52.10;;;;;;5018369;28;20436;-69
2022/07/10 12:28:11;;;;;;;4.72;2.70;;;24.80;52.00;;;;;;5020560;28;20422;-72
2022/07/10 12:30:45;;;;;;;4.15;2.60;;;24.90;52.00;;;;;;5015927;28;20424;-71
2022/07/10 12:33:18;;;;;;;4.82;2.60;;;24.80;52.10;;;;;;5020602;28;20988;-68
2022/07/10 12:35:58;;;;;;;3.30;2.50;;;24.80;52.20;;;;;;5018013;28;20404;-68
2022/07/10 12:38:33;;;;;;;5.10;2.50;;;24.90;52.30;;;;;;5020374;28;20424;-67
2022/07/10 12:41:11;;;;;;;3.88;2.45;;;24.90;52.20;;;;;;5023674;28;20753;-70
2022/07/10 12:43:38;;;;;;;3.22;2.45;;;24.90;52.60;;;;;;5023014;28;20454;-68
2022/07/10 12:46:15;;;;;;;3.83;2.65;;;24.90;52.30;;;;;;5020986;28;20396;-68
2022/07/10 12:49:02;;;;;;;3.55;2.50;;;24.90;52.30;;;;;;5022795;28;20664;-67
2022/07/10 12:51:30;;;;;;;7.10;2.75;;;24.90;52.10;;;;;;5023507;28;20390;-66
2022/07/10 12:53:57;;;;;;;3.97;2.65;;;24.90;52.30;;;;;;5022832;28;20419;-72
2022/07/10 12:56:28;;;;;;;4.00;2.33;;;24.80;52.00;;;;;;5022775;28;20396;-72
2022/07/10 12:58:54;;;;;;;4.88;2.50;;;24.80;51.60;;;;;;5023603;28;20394;-67
2022/07/10 13:01:21;;;;;;;3.28;2.10;;;24.80;51.70;;;;;;5020816;28;20388;-69
2022/07/10 13:03:47;;;;;;;2.40;2.00;;;24.80;51.20;;;;;;5022678;28;20532;-70
2022/07/10 13:06:28;;;;;;;3.85;2.25;;;24.80;50.90;;;;;;5020854;28;20472;-71
2022/07/10 13:08:56;;;;;;;2.97;1.98;;;24.80;51.20;;;;;;5022798;28;20397;-71